Time,TemperatureF,DewpointF,PressureIn,WindDirection,WindDirectionDegrees,WindSpeedMPH,WindSpeedGustMPH,Humidity,HourlyPrecipIn,Conditions,Clouds,dailyrainin,SoftwareType,DateUTC
2013-07-24 00:43:00,71.0,65.0,30.08,ESE,105,3.0,3.0,83,-99.99,,,-99.99,,2013-07-24 06:43:00,
2013-07-24 01:52:00,71.0,65.0,30.08,North,0,0.0,3.0,81,-99.99,,,-99.99,,2013-07-24 07:52:00,
2013-07-24 02:32:00,71.0,65.0,30.08,NNE,13,5.0,6.0,81,-99.99,,,-99.99,,2013-07-24 08:32:00,
2013-07-24 02:42:00,71.0,65.0,30.07,North,353,6.0,7.0,81,-99.99,,,-99.99,,2013-07-24 08:42:00,
2013-07-24 02:52:00,71.0,65.0,30.07,NNW,333,5.0,6.0,82,-99.99,,,-99.99,,2013-07-24 08:52:00,
2013-07-24 03:02:00,71.0,65.0,30.07,NW,320,5.0,6.0,83,-99.99,,,-99.99,,2013-07-24 09:02:00,
2013-07-24 03:53:00,70.0,66.0,30.07,North,0,0.0,1.0,88,-99.99,,,-99.99,,2013-07-24 09:53:00,
2013-07-24 04:12:00,70.0,66.0,30.06,SSW,199,3.0,5.0,87,-99.99,,,-99.99,,2013-07-24 10:12:00,
2013-07-24 04:22:00,69.0,65.0,30.06,SSW,207,3.0,3.0,86,-99.99,,,-99.99,,2013-07-24 10:22:00,
2013-07-24 04:33:00,70.0,65.0,30.06,North,0,0.0,2.0,85,-99.99,,,-99.99,,2013-07-24 10:33:00,
2013-07-24 04:43:00,69.0,65.0,30.06,SW,216,2.0,3.0,86,-99.99,,,-99.99,,2013-07-24 10:43:00,
2013-07-24 04:53:00,70.0,65.0,30.06,SW,220,3.0,3.0,85,-99.99,,,-99.99,,2013-07-24 10:53:00,
2013-07-24 05:12:00,69.0,65.0,30.06,SSW,207,7.0,8.0,85,-99.99,,,-99.99,,2013-07-24 11:12:00,
2013-07-24 05:32:00,69.0,65.0,30.06,SW,216,6.0,7.0,88,-99.99,,,-99.99,,2013-07-24 11:32:00,
2013-07-24 05:43:00,69.0,66.0,30.06,SW,224,7.0,9.0,89,-99.99,,,-99.99,,2013-07-24 11:43:00,
2013-07-24 05:52:00,69.0,66.0,30.06,SW,223,6.0,8.0,90,-99.99,,,-99.99,,2013-07-24 11:52:00,
2013-07-24 06:42:00,68.0,65.0,30.07,SW,218,5.0,6.0,90,-99.99,,,-99.99,,2013-07-24 12:42:00,
2013-07-24 07:43:00,69.0,66.0,30.09,SW,214,7.0,10.0,89,-99.99,,,-99.99,,2013-07-24 13:43:00,
2013-07-24 07:53:00,69.0,66.0,30.09,SSW,211,9.0,13.0,89,-99.99,,,-99.99,,2013-07-24 13:53:00,
2013-07-24 08:43:00,71.0,66.0,30.10,SW,214,10.0,13.0,84,-99.99,,,-99.99,,2013-07-24 14:43:00,
2013-07-24 08:55:00,72.0,66.0,30.10,SSW,210,10.0,14.0,82,-99.99,,,-99.99,,2013-07-24 14:55:00,
2013-07-24 09:52:00,75.0,66.0,30.11,South,184,7.0,9.0,72,-99.99,,,-99.99,,2013-07-24 15:52:00,
2013-07-24 10:32:00,77.0,65.0,30.11,South,187,7.0,8.0,66,-99.99,,,-99.99,,2013-07-24 16:32:00,
2013-07-24 10:43:00,77.0,65.0,30.12,South,172,6.0,8.0,66,-99.99,,,-99.99,,2013-07-24 16:43:00,
2013-07-24 10:53:00,78.0,64.0,30.12,South,179,7.0,9.0,63,-99.99,,,-99.99,,2013-07-24 16:53:00,
2013-07-24 11:12:00,79.0,63.0,30.12,West,260,3.0,10.0,58,-99.99,,,-99.99,,2013-07-24 17:12:00,
2013-07-24 11:43:00,81.0,63.0,30.12,West,278,3.0,5.0,53,-99.99,,,-99.99,,2013-07-24 17:43:00,
2013-07-24 11:53:00,81.0,63.0,30.12,SW,218,6.0,9.0,54,-99.99,,,-99.99,,2013-07-24 17:53:00,
2013-07-24 12:12:00,82.0,63.0,30.12,SW,215,7.0,12.0,54,-99.99,,,-99.99,,2013-07-24 18:12:00,
2013-07-24 13:32:00,85.0,64.0,30.09,West,280,6.0,7.0,49,-99.99,,,-99.99,,2013-07-24 19:32:00,
2013-07-24 13:53:00,85.0,62.0,30.09,South,171,6.0,8.0,45,-99.99,,,-99.99,,2013-07-24 19:53:00,
2013-07-24 14:13:00,86.0,62.0,30.07,South,178,13.0,16.0,44,-99.99,,,-99.99,,2013-07-24 20:13:00,
2013-07-24 14:32:00,87.0,62.0,30.06,SW,231,8.0,10.0,43,-99.99,,,-99.99,,2013-07-24 20:32:00,
2013-07-24 14:42:00,88.0,60.0,30.04,SSE,161,7.0,10.0,39,-99.99,,,-99.99,,2013-07-24 20:42:00,
2013-07-24 14:52:00,88.0,59.0,30.04,South,187,10.0,15.0,37,-99.99,,,-99.99,,2013-07-24 20:52:00,
2013-07-24 15:22:00,89.0,58.0,30.02,SSE,157,7.0,13.0,36,-99.99,,,-99.99,,2013-07-24 21:22:00,
2013-07-24 15:52:00,89.0,58.0,30.01,South,180,7.0,12.0,35,-99.99,,,-99.99,,2013-07-24 21:52:00,
2013-07-24 16:12:00,91.0,58.0,30.01,South,183,12.0,16.0,33,-99.99,,,-99.99,,2013-07-24 22:12:00,
2013-07-24 16:22:00,91.0,57.0,30.02,South,189,13.0,17.0,32,-99.99,,,-99.99,,2013-07-24 22:22:00,
2013-07-24 16:32:00,91.0,58.0,30.02,SSW,194,8.0,10.0,33,-99.99,,,-99.99,,2013-07-24 22:32:00,
2013-07-24 16:43:00,91.0,57.0,30.02,South,187,12.0,16.0,32,-99.99,,,-99.99,,2013-07-24 22:43:00,
2013-07-24 16:53:00,90.0,57.0,30.01,South,188,10.0,15.0,33,-99.99,,,-99.99,,2013-07-24 22:53:00,
2013-07-24 17:02:00,91.0,58.0,30.01,South,186,12.0,14.0,33,-99.99,,,-99.99,,2013-07-24 23:02:00,
2013-07-24 17:52:00,91.0,57.0,30.00,SW,220,6.0,7.0,32,-99.99,,,-99.99,,2013-07-24 23:52:00,
2013-07-24 18:02:00,92.0,58.0,30.00,SW,215,6.0,10.0,32,-99.99,,,-99.99,,2013-07-25 00:02:00,
2013-07-24 18:12:00,92.0,57.0,30.00,WSW,242,7.0,10.0,31,-99.99,,,-99.99,,2013-07-25 00:12:00,
2013-07-24 18:52:00,91.0,57.0,29.99,South,171,7.0,10.0,32,-99.99,,,-99.99,,2013-07-25 00:52:00,
2013-07-24 19:22:00,91.0,57.0,29.99,SW,217,7.0,8.0,32,-99.99,,,-99.99,,2013-07-25 01:22:00,
2013-07-24 19:43:00,90.0,56.0,30.00,West,269,6.0,8.0,32,-99.99,,,-99.99,,2013-07-25 01:43:00,
2013-07-24 20:02:00,90.0,57.0,30.03,SSE,147,13.0,21.0,33,-99.99,,,-99.99,,2013-07-25 02:02:00,
2013-07-24 20:12:00,83.0,61.0,30.03,SE,142,12.0,17.0,47,-99.99,,,-99.99,,2013-07-25 02:12:00,
2013-07-24 20:22:00,83.0,59.0,30.04,ESE,120,17.0,22.0,45,-99.99,,,-99.99,,2013-07-25 02:22:00,
2013-07-24 20:33:00,83.0,59.0,30.03,East,99,12.0,17.0,44,-99.99,,,-99.99,,2013-07-25 02:33:00,
2013-07-24 20:43:00,84.0,55.0,30.04,East,86,7.0,9.0,37,-99.99,,,-99.99,,2013-07-25 02:43:00,
2013-07-24 20:52:00,84.0,53.0,30.03,ENE,63,6.0,7.0,35,-99.99,,,-99.99,,2013-07-25 02:52:00,
2013-07-24 21:02:00,83.0,54.0,30.04,ESE,103,5.0,6.0,36,-99.99,,,-99.99,,2013-07-25 03:02:00,
2013-07-24 21:15:00,83.0,54.0,30.05,ENE,71,5.0,7.0,37,-99.99,,,-99.99,,2013-07-25 03:15:00,
2013-07-24 21:44:00,75.0,64.0,30.09,NE,36,18.0,27.0,69,-99.99,,,-99.99,,2013-07-25 03:44:00,
2013-07-24 22:12:00,73.0,63.0,30.11,East,79,10.0,13.0,69,-99.99,,,-99.99,,2013-07-25 04:12:00,
2013-07-24 22:32:00,70.0,66.0,30.11,NE,53,13.0,17.0,86,-99.99,,,-99.99,,2013-07-25 04:32:00,
2013-07-24 22:43:00,70.0,66.0,30.12,NE,55,14.0,20.0,86,-99.99,,,-99.99,,2013-07-25 04:43:00,
2013-07-24 22:53:00,71.0,66.0,30.12,NE,56,13.0,16.0,84,-99.99,,,-99.99,,2013-07-25 04:53:00,
2013-07-24 23:12:00,71.0,66.0,30.14,NNE,22,14.0,21.0,86,-99.99,,,-99.99,,2013-07-25 05:12:00,
2013-07-24 23:22:00,71.0,66.0,30.14,NNE,26,16.0,21.0,86,-99.99,,,-99.99,,2013-07-25 05:22:00,
2013-07-24 23:32:00,70.0,65.0,30.14,NNE,26,17.0,25.0,85,-99.99,,,-99.99,,2013-07-25 05:32:00,
2013-07-24 23:43:00,70.0,66.0,30.13,NNE,22,15.0,21.0,87,-99.99,,,-99.99,,2013-07-25 05:43:00,
2013-07-24 23:52:00,70.0,65.0,30.13,NNE,18,13.0,18.0,86,-99.99,,,-99.99,,2013-07-25 05:52:00,